Time;durP1;ratioP1;P1;durP2;ratioP2;P2;SDS_P1;SDS_P2;PMS_P1;PMS_P2;Temp;Humidity;BMP_temperature;BMP_pressure;BME280_temperature;BME280_humidity;BME280_pressure;Samples;Min_cycle;Max_cycle;Signal;HPM_P1;HPM_P2
2023/11/29 00:01:30;;;;;;;49.03;19.70;;;;;;;-2.09;100.00;96548.22;4997838;28;20449;-83
2023/11/29 00:03:58;;;;;;;47.85;18.40;;;;;;;-2.09;100.00;96544.81;4997264;28;20543;-83
2023/11/29 00:06:24;;;;;;;45.65;17.42;;;;;;;-2.09;100.00;96542.22;5003287;28;20399;-84
2023/11/29 00:08:54;;;;;;;39.15;16.63;;;;;;;-2.08;100.00;96538.66;4997417;28;20405;-83
2023/11/29 00:11:20;;;;;;;39.75;16.70;;;;;;;-2.09;100.00;96537.84;4997724;28;20895;-84
2023/11/29 00:13:46;;;;;;;37.10;15.80;;;;;;;-2.10;100.00;96538.84;4997973;28;20410;-83
2023/11/29 00:16:12;;;;;;;34.75;14.50;;;;;;;-2.11;100.00;96528.69;4998864;28;20406;-84
2023/11/29 00:18:39;;;;;;;32.13;14.75;;;;;;;-2.13;100.00;96531.47;4999371;28;20763;-82
2023/11/29 00:21:06;;;;;;;29.50;13.60;;;;;;;-2.14;100.00;96526.47;5000054;28;20488;-83
2023/11/29 00:23:33;;;;;;;26.27;12.53;;;;;;;-2.15;100.00;96520.47;4998809;28;20475;-84
2023/11/29 00:25:59;;;;;;;26.02;12.35;;;;;;;-2.14;100.00;96523.88;4998608;28;20894;-82
2023/11/29 00:28:25;;;;;;;26.63;12.13;;;;;;;-2.17;100.00;96508.69;4998364;28;20402;-83
2023/11/29 00:30:51;;;;;;;35.80;15.02;;;;;;;-2.23;100.00;96515.44;4998560;28;20784;-82
2023/11/29 00:33:17;;;;;;;42.40;17.35;;;;;;;-2.29;100.00;96505.84;4998066;28;20417;-82
2023/11/29 00:35:43;;;;;;;64.13;24.90;;;;;;;-2.38;100.00;96491.44;4997704;28;20448;-83
2023/11/29 00:38:11;;;;;;;50.40;22.75;;;;;;;-2.44;100.00;96493.03;4996513;28;20482;-82
2023/11/29 00:40:37;;;;;;;43.03;19.85;;;;;;;-2.49;100.00;96494.59;4980166;28;20434;-83
2023/11/29 00:43:04;;;;;;;35.78;17.25;;;;;;;-2.56;100.00;96498.94;4999048;28;20421;-83
2023/11/29 00:45:30;;;;;;;36.33;16.15;;;;;;;-2.62;100.00;96502.25;5003380;28;20505;-83
2023/11/29 00:47:56;;;;;;;29.52;14.68;;;;;;;-2.64;100.00;96499.09;5000453;28;20430;-82
2023/11/29 00:50:22;;;;;;;26.05;13.18;;;;;;;-2.68;100.00;96503.84;5006637;28;20485;-81
2023/11/29 00:52:48;;;;;;;23.35;12.00;;;;;;;-2.69;100.00;96498.84;5002249;28;20390;-80
2023/11/29 00:55:16;;;;;;;21.95;11.52;;;;;;;-2.71;100.00;96491.28;4999173;28;20751;-84
2023/11/29 00:57:42;;;;;;;23.88;11.93;;;;;;;-2.72;100.00;96494.84;4999551;28;20395;-80
2023/11/29 01:00:10;;;;;;;19.30;10.35;;;;;;;-2.74;100.00;96497.63;5001024;28;20429;-82
2023/11/29 01:02:36;;;;;;;20.25;10.88;;;;;;;-2.77;100.00;96495.41;5003433;28;20394;-83
2023/11/29 01:05:02;;;;;;;21.52;11.00;;;;;;;-2.81;100.00;96495.97;5002619;28;20406;-80
2023/11/29 01:07:28;;;;;;;20.67;10.70;;;;;;;-2.85;100.00;96498.13;4998517;28;20430;-82
2023/11/29 01:09:54;;;;;;;20.95;11.13;;;;;;;-2.87;100.00;96491.56;4999157;28;20719;-83
2023/11/29 01:12:22;;;;;;;24.90;12.52;;;;;;;-2.87;100.00;96494.97;5002553;28;20402;-82
2023/11/29 01:14:48;;;;;;;22.60;12.10;;;;;;;-2.86;100.00;96500.94;5001941;28;20399;-82
2023/11/29 01:17:14;;;;;;;21.70;10.82;;;;;;;-2.85;100.00;96502.50;5002141;28;20405;-80
2023/11/29 01:19:40;;;;;;;21.55;11.05;;;;;;;-2.83;100.00;96508.31;5002796;28;20469;-82
2023/11/29 01:22:07;;;;;;;26.98;13.85;;;;;;;-2.79;100.00;96509.56;5002172;28;20406;-82
2023/11/29 01:24:33;;;;;;;28.40;12.98;;;;;;;-2.73;100.00;96511.38;5003009;28;20433;-83
2023/11/29 01:27:00;;;;;;;28.65;14.60;;;;;;;-2.67;100.00;96507.22;5002890;28;20406;-81
2023/11/29 01:29:27;;;;;;;28.60;14.23;;;;;;;-2.64;100.00;96506.84;5001294;28;20458;-82
2023/11/29 01:31:53;;;;;;;31.75;14.38;;;;;;;-2.63;100.00;96506.66;5002226;28;20429;-82
2023/11/29 01:34:19;;;;;;;26.38;13.32;;;;;;;-2.60;100.00;96502.88;5001818;28;20410;-81
2023/11/29 01:36:46;;;;;;;27.85;12.95;;;;;;;-2.56;100.00;96512.69;5001347;28;20405;-80
2023/11/29 01:39:15;;;;;;;28.43;12.87;;;;;;;-2.52;100.00;96500.16;4998494;28;20493;-81
2023/11/29 01:41:41;;;;;;;27.58;12.48;;;;;;;-2.49;100.00;96495.41;5000998;28;20891;-81
2023/11/29 01:44:07;;;;;;;25.13;11.70;;;;;;;-2.49;100.00;96498.00;5002381;28;20394;-83
2023/11/29 01:46:35;;;;;;;22.52;10.68;;;;;;;-2.50;100.00;96491.19;4999783;28;20422;-80
2023/11/29 01:49:02;;;;;;;23.55;11.07;;;;;;;-2.52;100.00;96497.56;5000844;28;20449;-80
2023/11/29 01:51:30;;;;;;;20.83;10.15;;;;;;;-2.57;100.00;96487.78;5001620;28;20863;-84
2023/11/29 01:53:58;;;;;;;30.23;10.50;;;;;;;-2.60;100.00;96495.91;5001417;28;20410;-83
2023/11/29 01:56:24;;;;;;;21.45;10.68;;;;;;;-2.64;100.00;96493.91;5002919;28;20398;-83
2023/11/29 01:58:51;;;;;;;21.38;10.10;;;;;;;-2.69;100.00;96501.44;5002429;28;20486;-83
2023/11/29 02:01:17;;;;;;;17.87;9.40;;;;;;;-2.74;100.00;96499.41;5001239;28;20422;-81
2023/11/29 02:03:45;;;;;;;22.83;11.03;;;;;;;-2.80;100.00;96493.22;4999954;28;20450;-82
2023/11/29 02:06:11;;;;;;;26.52;12.70;;;;;;;-2.85;100.00;96498.13;5000256;28;20505;-80
2023/11/29 02:08:38;;;;;;;25.58;12.82;;;;;;;-2.89;100.00;96493.53;5000490;28;20482;-82
2023/11/29 02:11:04;;;;;;;23.35;12.02;;;;;;;-2.97;100.00;96489.28;5005959;28;20831;-79
2023/11/29 02:13:31;;;;;;;24.10;12.40;;;;;;;-3.02;100.00;96485.69;5011919;28;20706;-79
2023/11/29 02:15:58;;;;;;;22.98;11.88;;;;;;;-3.08;100.00;96487.22;5007996;28;20406;-82
2023/11/29 02:18:24;;;;;;;22.88;12.30;;;;;;;-3.12;100.00;96484.22;4999149;28;20445;-81
2023/11/29 02:20:52;;;;;;;19.60;11.13;;;;;;;-3.19;100.00;96480.78;4999635;28;20782;-81
2023/11/29 02:23:31;;;;;;;18.77;9.45;;;;;;;-3.28;100.00;96471.53;4999489;28;20442;-83
2023/11/29 02:25:58;;;;;;;21.35;11.30;;;;;;;-3.33;100.00;96473.09;5000368;28;20407;-82
2023/11/29 02:28:24;;;;;;;21.48;10.23;;;;;;;-3.41;100.00;96465.47;4999077;28;20398;-83
2023/11/29 02:30:50;;;;;;;20.37;10.17;;;;;;;-3.46;100.00;96465.22;4999236;28;20403;-82
2023/11/29 02:33:16;;;;;;;21.80;11.38;;;;;;;-3.51;100.00;96466.56;4999141;28;20547;-83
2023/11/29 02:35:43;;;;;;;22.92;10.98;;;;;;;-3.55;100.00;96461.97;5000158;28;20410;-82
2023/11/29 02:38:09;;;;;;;20.13;9.32;;;;;;;-3.59;100.00;96465.88;4999713;28;20526;-83
2023/11/29 02:40:35;;;;;;;17.60;9.15;;;;;;;-3.64;100.00;96463.88;4998600;28;20425;-81
2023/11/29 02:43:03;;;;;;;19.15;10.38;;;;;;;-3.68;100.00;96462.63;4998647;28;20406;-83
2023/11/29 02:45:29;;;;;;;15.95;8.90;;;;;;;-3.69;100.00;96470.56;4998685;28;20425;-82
2023/11/29 02:47:55;;;;;;;13.48;8.18;;;;;;;-3.73;100.00;96470.13;4998901;28;20395;-83
2023/11/29 02:50:21;;;;;;;15.32;7.97;;;;;;;-3.77;100.00;96466.31;4998960;28;20495;-81
2023/11/29 02:52:48;;;;;;;12.18;7.30;;;;;;;-3.77;100.00;96473.28;5004251;28;20478;-81
2023/11/29 02:55:14;;;;;;;14.07;7.38;;;;;;;-3.81;100.00;96465.06;4998190;28;20415;-81
2023/11/29 02:57:40;;;;;;;14.80;7.72;;;;;;;-3.82;100.00;96462.66;4998023;28;20489;-82
2023/11/29 03:00:09;;;;;;;14.68;7.68;;;;;;;-3.85;100.00;96469.03;4998086;28;20458;-82
2023/11/29 03:02:35;;;;;;;13.48;7.43;;;;;;;-3.88;100.00;96461.63;4997181;28;20466;-82
2023/11/29 03:05:01;;;;;;;11.52;6.63;;;;;;;-3.90;100.00;96459.22;4999000;28;20778;-82
2023/11/29 03:07:27;;;;;;;12.82;6.93;;;;;;;-3.91;100.00;96467.94;4999549;28;20971;-83
2023/11/29 03:09:53;;;;;;;13.65;7.25;;;;;;;-3.92;100.00;96468.16;5000357;28;20430;-83
2023/11/29 03:12:20;;;;;;;12.88;7.60;;;;;;;-3.93;100.00;96466.56;5003946;28;20414;-82
2023/11/29 03:14:46;;;;;;;11.75;6.63;;;;;;;-3.93;100.00;96463.97;4998369;28;20402;-83
2023/11/29 03:17:13;;;;;;;12.32;6.68;;;;;;;-3.94;100.00;96464.94;4998457;28;20399;-82
2023/11/29 03:19:39;;;;;;;11.07;6.53;;;;;;;-3.97;100.00;96460.13;4998442;28;20481;-82
2023/11/29 03:22:06;;;;;;;14.98;7.90;;;;;;;-3.98;100.00;96468.88;4999148;28;20426;-82
2023/11/29 03:24:32;;;;;;;14.23;7.20;;;;;;;-4.00;100.00;96458.72;4998932;28;20895;-83
2023/11/29 03:26:58;;;;;;;15.77;7.78;;;;;;;-4.00;100.00;96466.50;4999587;28;20394;-82
2023/11/29 03:29:24;;;;;;;14.00;7.38;;;;;;;-4.00;100.00;96460.50;4999096;28;20413;-82
2023/11/29 03:31:50;;;;;;;16.50;8.60;;;;;;;-4.01;100.00;96462.28;5003749;28;20445;-83
2023/11/29 03:34:19;;;;;;;15.23;8.27;;;;;;;-4.01;100.00;96458.91;4997332;28;20413;-82
2023/11/29 03:36:46;;;;;;;13.43;7.43;;;;;;;-4.03;100.00;96458.28;4997808;28;20866;-83
2023/11/29 03:39:12;;;;;;;13.23;7.15;;;;;;;-4.04;100.00;96456.69;4998351;28;20409;-81
2023/11/29 03:41:38;;;;;;;13.95;7.28;;;;;;;-4.06;100.00;96454.28;4998561;28;20895;-83
2023/11/29 03:44:04;;;;;;;12.50;6.65;;;;;;;-4.09;100.00;96449.47;5002070;28;20740;-81
2023/11/29 03:46:31;;;;;;;11.85;6.60;;;;;;;-4.09;100.00;96440.94;5009867;28;20420;-82
2023/11/29 03:48:57;;;;;;;11.55;6.55;;;;;;;-4.11;100.00;96446.28;5009168;28;20398;-83
2023/11/29 03:51:24;;;;;;;12.82;7.05;;;;;;;-4.11;100.00;96441.09;5008118;28;20410;-82
2023/11/29 03:53:50;;;;;;;12.00;6.68;;;;;;;-4.11;100.00;96446.28;5007157;28;20405;-82
2023/11/29 03:56:16;;;;;;;9.82;5.75;;;;;;;-4.10;100.00;96445.28;5004199;28;20394;-79
2023/11/29 03:58:43;;;;;;;10.00;5.63;;;;;;;-4.09;100.00;96433.97;5006810;28;20438;-82
2023/11/29 04:01:09;;;;;;;10.07;5.47;;;;;;;-4.08;100.00;96427.84;5000285;28;20445;-82
2023/11/29 04:03:35;;;;;;;9.35;5.70;;;;;;;-4.08;100.00;96433.00;4997566;28;20429;-83
2023/11/29 04:06:01;;;;;;;9.88;5.97;;;;;;;-4.09;100.00;96433.97;4997233;28;20398;-82
2023/11/29 04:08:28;;;;;;;10.60;5.78;;;;;;;-4.10;100.00;96431.56;4996937;28;20599;-82
2023/11/29 04:10:55;;;;;;;8.50;5.30;;;;;;;-4.10;100.00;96426.41;4996368;28;20424;-81
2023/11/29 04:13:21;;;;;;;10.23;5.72;;;;;;;-4.13;100.00;96422.41;4996280;28;20816;-82
2023/11/29 04:15:47;;;;;;;10.38;5.55;;;;;;;-4.15;100.00;96416.63;4996577;28;20635;-82
2023/11/29 04:18:13;;;;;;;9.55;5.50;;;;;;;-4.15;100.00;96408.88;4996857;28;20403;-82
2023/11/29 04:20:39;;;;;;;9.07;4.90;;;;;;;-4.13;100.00;96408.66;4997170;28;20418;-82
2023/11/29 04:23:05;;;;;;;8.40;5.07;;;;;;;-4.13;100.00;96409.47;4997248;28;20624;-81
2023/11/29 04:25:33;;;;;;;8.95;5.40;;;;;;;-4.13;100.00;96406.09;4997197;28;20409;-80
2023/11/29 04:27:59;;;;;;;9.85;5.50;;;;;;;-4.11;100.00;96396.38;4997204;28;20457;-82
2023/11/29 04:30:26;;;;;;;10.32;5.90;;;;;;;-4.09;100.00;96399.59;4996431;28;20425;-82
2023/11/29 04:32:52;;;;;;;8.02;4.97;;;;;;;-4.02;100.00;96403.03;4996670;28;20402;-82
2023/11/29 04:35:18;;;;;;;9.15;5.07;;;;;;;-3.95;100.00;96403.91;4996978;28;20445;-82
2023/11/29 04:37:45;;;;;;;9.85;5.13;;;;;;;-3.87;100.00;96402.97;4996146;28;20473;-82
2023/11/29 04:40:12;;;;;;;9.30;4.95;;;;;;;-3.79;100.00;96398.47;4995169;28;20429;-83
2023/11/29 04:42:39;;;;;;;10.00;5.40;;;;;;;-3.70;100.00;96392.19;4996561;28;20398;-83
2023/11/29 04:45:06;;;;;;;9.18;5.30;;;;;;;-3.59;100.00;96394.28;4996004;28;20395;-82
2023/11/29 04:47:32;;;;;;;11.60;5.90;;;;;;;-3.49;100.00;96387.97;4996886;28;20448;-82
2023/11/29 04:49:58;;;;;;;12.00;6.25;;;;;;;-3.39;100.00;96389.28;4996030;28;20419;-82
2023/11/29 04:52:24;;;;;;;14.10;7.35;;;;;;;-3.30;100.00;96382.94;4996384;28;20413;-81
2023/11/29 04:54:50;;;;;;;15.60;7.97;;;;;;;-3.23;100.00;96375.22;4995797;28;20445;-81
2023/11/29 04:57:17;;;;;;;18.53;9.47;;;;;;;-3.15;100.00;96377.66;4995972;28;20402;-81
2023/11/29 04:59:44;;;;;;;20.02;9.55;;;;;;;-3.07;100.00;96377.50;4995879;28;20421;-83
2023/11/29 05:02:10;;;;;;;21.77;10.90;;;;;;;-3.04;100.00;96374.56;4992472;28;20893;-82
2023/11/29 05:04:36;;;;;;;31.83;13.43;;;;;;;-2.99;100.00;96374.78;4982257;28;20817;-84
2023/11/29 05:07:03;;;;;;;26.90;13.07;;;;;;;-2.97;100.00;96374.59;4998519;28;20403;-82
2023/11/29 05:09:29;;;;;;;46.70;19.35;;;;;;;-2.94;100.00;96379.41;4997738;28;20405;-82
2023/11/29 05:11:55;;;;;;;35.42;16.83;;;;;;;-2.95;100.00;96377.78;5000491;28;20481;-82
2023/11/29 05:14:21;;;;;;;40.08;17.90;;;;;;;-2.97;100.00;96374.59;5006173;28;20400;-82
2023/11/29 05:16:49;;;;;;;48.83;19.80;;;;;;;-2.95;100.00;96375.19;4998176;28;20416;-81
2023/11/29 05:19:15;;;;;;;44.50;19.15;;;;;;;-2.95;100.00;96385.56;4994165;28;20430;-82
2023/11/29 05:21:41;;;;;;;40.55;17.48;;;;;;;-2.91;100.00;96379.78;5007516;28;20413;-81
2023/11/29 05:24:07;;;;;;;38.75;16.17;;;;;;;-2.86;100.00;96385.22;5009650;28;20398;-81
2023/11/29 05:26:33;;;;;;;35.67;15.90;;;;;;;-2.82;100.00;96376.06;5006038;28;20406;-82
2023/11/29 05:29:00;;;;;;;34.25;15.50;;;;;;;-2.75;100.00;96373.50;5014333;28;20418;-82
2023/11/29 05:31:27;;;;;;;38.67;16.37;;;;;;;-2.71;100.00;96366.97;5013174;28;20418;-81
2023/11/29 05:33:54;;;;;;;42.00;16.40;;;;;;;-2.64;100.00;96377.34;4997486;28;20406;-82
2023/11/29 05:36:21;;;;;;;31.80;13.60;;;;;;;-2.60;100.00;96375.97;4996615;28;20502;-81
2023/11/29 05:38:47;;;;;;;39.20;17.67;;;;;;;-2.56;100.00;96369.41;5001563;28;20695;-83
2023/11/29 05:41:15;;;;;;;36.08;16.38;;;;;;;-2.53;100.00;96369.00;4992945;28;20418;-79
2023/11/29 05:43:41;;;;;;;47.50;18.75;;;;;;;-2.51;100.00;96372.22;4996773;28;20410;-80
2023/11/29 05:46:08;;;;;;;53.05;20.95;;;;;;;-2.52;100.00;96371.41;4997442;28;21113;-81
2023/11/29 05:48:34;;;;;;;49.72;20.10;;;;;;;-2.48;100.00;96366.66;4997432;28;20414;-80
2023/11/29 05:51:02;;;;;;;42.42;18.20;;;;;;;-2.46;100.00;96365.44;4996660;28;20415;-81
2023/11/29 05:53:28;;;;;;;35.30;15.82;;;;;;;-2.42;100.00;96369.25;4996248;28;20402;-81
2023/11/29 05:55:54;;;;;;;38.25;15.85;;;;;;;-2.39;100.00;96366.25;4997190;28;20407;-82
2023/11/29 05:58:20;;;;;;;38.63;15.50;;;;;;;-2.35;100.00;96364.09;5000211;28;20494;-81
2023/11/29 06:00:46;;;;;;;47.25;19.38;;;;;;;-2.34;100.00;96363.09;5001926;28;20421;-81
2023/11/29 06:03:12;;;;;;;43.27;17.63;;;;;;;-2.33;100.00;96355.13;5001836;28;20997;-81
2023/11/29 06:05:39;;;;;;;44.15;18.17;;;;;;;-2.29;100.00;96357.31;4999895;28;20509;-81
2023/11/29 06:08:06;;;;;;;44.50;17.73;;;;;;;-2.27;100.00;96369.09;4998195;28;20402;-80
2023/11/29 06:10:32;;;;;;;45.05;18.35;;;;;;;-2.25;100.00;96359.31;4998573;28;20871;-81
2023/11/29 06:12:59;;;;;;;47.67;18.65;;;;;;;-2.23;100.00;96359.13;5000286;28;20399;-81
2023/11/29 06:15:25;;;;;;;54.30;20.92;;;;;;;-2.22;100.00;96361.53;4998874;28;20406;-82
2023/11/29 06:17:52;;;;;;;49.55;18.80;;;;;;;-2.19;100.00;96360.34;4999421;28;20832;-81
2023/11/29 06:20:20;;;;;;;50.03;20.25;;;;;;;-2.18;100.00;96359.38;5000269;28;20521;-82
2023/11/29 06:22:46;;;;;;;44.55;18.33;;;;;;;-2.17;100.00;96360.94;4999600;28;20509;-78
2023/11/29 06:25:14;;;;;;;43.75;16.83;;;;;;;-2.16;100.00;96372.91;4997693;28;20421;-79
2023/11/29 06:27:40;;;;;;;48.80;18.58;;;;;;;-2.14;100.00;96376.09;4997268;28;20493;-79
2023/11/29 06:30:08;;;;;;;59.63;23.40;;;;;;;-2.17;100.00;96364.31;4997215;28;20406;-80
2023/11/29 06:32:36;;;;;;;59.03;23.35;;;;;;;-2.16;100.00;96376.28;4999402;28;20825;-79
2023/11/29 06:35:02;;;;;;;59.38;22.13;;;;;;;-2.14;100.00;96378.69;5004453;28;20948;-79
2023/11/29 06:37:28;;;;;;;50.42;20.08;;;;;;;-2.12;100.00;96381.91;5004686;28;20425;-80
2023/11/29 06:39:54;;;;;;;51.67;18.98;;;;;;;-2.10;100.00;96387.66;5000829;28;20406;-79
2023/11/29 06:42:22;;;;;;;40.35;16.77;;;;;;;-2.09;100.00;96386.69;4998468;28;20402;-81
2023/11/29 06:44:48;;;;;;;36.10;14.30;;;;;;;-2.08;100.00;96388.28;4997945;28;20414;-82
2023/11/29 06:47:14;;;;;;;34.00;14.15;;;;;;;-2.08;100.00;96386.50;4997616;28;20402;-80
2023/11/29 06:49:40;;;;;;;29.42;12.45;;;;;;;-2.07;100.00;96387.28;4997925;28;20462;-80
2023/11/29 06:52:08;;;;;;;30.90;13.70;;;;;;;-2.09;100.00;96390.06;4997094;28;20875;-79
2023/11/29 06:54:35;;;;;;;51.00;19.40;;;;;;;-2.07;100.00;96382.09;4997848;28;20494;-79
2023/11/29 06:57:02;;;;;;;47.08;17.98;;;;;;;-2.05;100.00;96391.28;4997697;28;20409;-80
2023/11/29 06:59:30;;;;;;;45.05;17.85;;;;;;;-2.05;100.00;96380.91;4997531;28;20445;-80
2023/11/29 07:01:57;;;;;;;36.22;15.38;;;;;;;-2.00;100.00;96380.31;4997055;28;20422;-82
2023/11/29 07:04:23;;;;;;;35.77;14.80;;;;;;;-1.99;100.00;96377.53;4996967;28;20460;-80
2023/11/29 07:06:49;;;;;;;41.42;16.60;;;;;;;-1.97;100.00;96380.75;4995717;28;20737;-79
2023/11/29 07:09:16;;;;;;;46.47;17.45;;;;;;;-1.95;100.00;96378.72;4996833;28;20398;-80
2023/11/29 07:11:42;;;;;;;39.60;16.08;;;;;;;-1.96;100.00;96373.75;4997797;28;20450;-80
2023/11/29 07:14:08;;;;;;;37.35;14.68;;;;;;;-2.00;100.00;96369.94;4998417;28;20485;-80
2023/11/29 07:16:36;;;;;;;51.03;20.35;;;;;;;-2.07;100.00;96366.53;5000326;28;20410;-80
2023/11/29 07:19:03;;;;;;;47.63;18.55;;;;;;;-2.10;100.00;96365.13;4997522;28;20891;-80
2023/11/29 07:21:29;;;;;;;35.10;15.57;;;;;;;-2.11;100.00;96376.53;4998026;28;20457;-79
2023/11/29 07:23:56;;;;;;;42.53;16.33;;;;;;;-2.08;100.00;96381.31;4997748;28;20402;-80
2023/11/29 07:26:22;;;;;;;48.05;19.15;;;;;;;-2.01;100.00;96378.72;4997659;28;20961;-79
2023/11/29 07:28:48;;;;;;;58.05;23.23;;;;;;;-1.96;100.00;96371.97;4997400;28;20966;-79
2023/11/29 07:31:14;;;;;;;63.95;24.58;;;;;;;-1.88;100.00;96376.13;4997576;28;20434;-81
2023/11/29 07:33:43;;;;;;;64.85;23.52;;;;;;;-1.82;100.00;96379.75;4997051;28;20957;-79
2023/11/29 07:36:12;;;;;;;66.25;24.02;;;;;;;-1.81;100.00;96387.34;4996714;28;20403;-80
2023/11/29 07:38:38;;;;;;;65.78;24.90;;;;;;;-1.79;100.00;96379.34;4994946;28;20898;-79
2023/11/29 07:41:04;;;;;;;65.15;24.13;;;;;;;-1.76;100.00;96378.97;4997353;28;20424;-80
2023/11/29 07:43:31;;;;;;;67.80;26.35;;;;;;;-1.76;100.00;96395.31;4997268;28;20444;-80
2023/11/29 07:45:57;;;;;;;68.78;26.85;;;;;;;-1.75;100.00;96378.78;4997637;28;20485;-80
2023/11/29 07:48:24;;;;;;;62.92;25.10;;;;;;;-1.67;100.00;96375.19;4998178;28;20736;-79
2023/11/29 07:50:54;;;;;;;71.13;25.08;;;;;;;-1.60;100.00;96381.16;5009011;28;20417;-80
2023/11/29 07:53:20;;;;;;;61.87;23.13;;;;;;;-1.56;100.00;96372.78;5006737;28;20399;-79
2023/11/29 07:55:47;;;;;;;62.45;24.27;;;;;;;-1.52;100.00;96372.38;5008319;28;20407;-79
2023/11/29 07:58:13;;;;;;;69.78;26.50;;;;;;;-1.57;100.00;96376.38;5013570;28;20457;-80
2023/11/29 08:00:39;;;;;;;69.88;26.20;;;;;;;-1.51;100.00;96374.00;5008705;28;20429;-80
2023/11/29 08:03:05;;;;;;;68.97;25.58;;;;;;;-1.49;100.00;96374.56;5018733;28;20401;-80
2023/11/29 08:05:34;;;;;;;70.03;26.73;;;;;;;-1.51;100.00;96379.97;5008591;28;20409;-80
2023/11/29 08:08:02;;;;;;;68.07;25.73;;;;;;;-1.51;100.00;96369.59;4997875;28;20513;-80
2023/11/29 08:10:29;;;;;;;67.05;25.17;;;;;;;-1.46;100.00;96376.78;4996784;28;20414;-79
2023/11/29 08:12:56;;;;;;;67.17;26.47;;;;;;;-1.46;100.00;96377.56;4997346;28;20459;-79
2023/11/29 08:15:22;;;;;;;70.13;25.52;;;;;;;-1.40;100.00;96383.75;4997471;28;20752;-79
2023/11/29 08:17:48;;;;;;;64.68;25.50;;;;;;;-1.43;100.00;96379.78;5009639;28;20407;-80
2023/11/29 08:20:14;;;;;;;68.65;25.23;;;;;;;-1.37;100.00;96380.78;5002120;28;20474;-80
2023/11/29 08:22:40;;;;;;;63.97;25.63;;;;;;;-1.45;100.00;96379.19;4996131;28;20903;-79
2023/11/29 08:25:08;;;;;;;62.47;25.00;;;;;;;-1.36;100.00;96380.56;4996410;28;20905;-80
2023/11/29 08:27:34;;;;;;;60.97;25.83;;;;;;;-1.35;100.00;96379.56;5017111;28;20414;-79
2023/11/29 08:30:01;;;;;;;62.83;25.33;;;;;;;-1.32;100.00;96381.75;5015363;28;20438;-81
2023/11/29 08:32:27;;;;;;;57.65;24.45;;;;;;;-1.30;100.00;96377.16;5007149;28;20480;-80
2023/11/29 08:34:53;;;;;;;62.50;24.10;;;;;;;-1.23;100.00;96375.38;4996877;28;20394;-80
2023/11/29 08:37:21;;;;;;;59.85;24.55;;;;;;;-1.22;100.00;96383.97;4996265;28;20402;-80
2023/11/29 08:39:47;;;;;;;63.77;23.67;;;;;;;-1.15;100.00;96386.53;4997431;28;20403;-80
2023/11/29 08:42:14;;;;;;;61.25;22.75;;;;;;;-1.12;100.00;96376.53;5012846;28;20413;-81
2023/11/29 08:44:42;;;;;;;61.23;22.97;;;;;;;-1.10;100.00;96379.72;5012686;28;20467;-80
2023/11/29 08:47:08;;;;;;;63.40;25.05;;;;;;;-1.14;100.00;96375.16;4999987;28;20430;-80
2023/11/29 08:49:34;;;;;;;58.22;21.83;;;;;;;-1.04;100.00;96365.13;4996594;28;20811;-79
2023/11/29 08:52:00;;;;;;;61.03;22.65;;;;;;;-1.01;100.00;96370.72;4995699;28;20411;-80
2023/11/29 08:54:26;;;;;;;60.67;21.67;;;;;;;-0.94;100.00;96373.31;4995646;28;20403;-80
2023/11/29 08:56:53;;;;;;;57.15;20.95;;;;;;;-0.93;100.00;96374.91;4996176;28;20808;-79
2023/11/29 08:59:20;;;;;;;58.80;22.05;;;;;;;-0.90;100.00;96371.88;4995269;28;20401;-79
2023/11/29 09:01:47;;;;;;;56.28;20.98;;;;;;;-0.87;100.00;96371.50;4996108;28;20422;-80
2023/11/29 09:04:13;;;;;;;53.20;21.25;;;;;;;-0.87;100.00;96363.69;4995571;28;20493;-80
2023/11/29 09:06:39;;;;;;;58.83;20.52;;;;;;;-0.81;100.00;96381.06;4995591;28;20421;-80
2023/11/29 09:09:08;;;;;;;55.53;20.38;;;;;;;-0.83;100.00;96370.88;4995272;28;20453;-81
2023/11/29 09:11:34;;;;;;;51.75;19.55;;;;;;;-0.84;100.00;96374.50;4995333;28;20771;-80
2023/11/29 09:14:00;;;;;;;52.75;19.48;;;;;;;-0.82;100.00;96362.06;4995241;28;20424;-79
2023/11/29 09:16:28;;;;;;;57.47;22.13;;;;;;;-0.83;100.00;96359.72;4995986;28;20403;-80
2023/11/29 09:18:54;;;;;;;47.03;18.02;;;;;;;-0.73;100.00;96364.47;4995777;28;20402;-79
2023/11/29 09:21:20;;;;;;;48.38;17.63;;;;;;;-0.67;100.00;96353.25;4995310;28;20425;-80
2023/11/29 09:23:46;;;;;;;55.20;19.13;;;;;;;-0.61;100.00;96365.44;4994946;28;20453;-79
2023/11/29 09:26:13;;;;;;;51.03;19.97;;;;;;;-0.54;100.00;96356.59;4994315;28;21014;-80
2023/11/29 09:28:39;;;;;;;50.40;19.52;;;;;;;-0.40;100.00;96362.53;4994741;28;20434;-80
2023/11/29 09:31:06;;;;;;;44.55;18.67;;;;;;;-0.22;100.00;96343.63;4995910;28;20398;-79
2023/11/29 09:33:33;;;;;;;48.67;19.40;;;;;;;-0.11;100.00;96356.78;4999972;28;20452;-85
2023/11/29 09:35:59;;;;;;;50.85;21.77;;;;;;;-0.17;100.00;96355.03;5000113;28;20847;-80
2023/11/29 09:38:25;;;;;;;44.07;18.83;;;;;;;-0.07;100.00;96344.13;4999940;28;20410;-79
2023/11/29 09:40:52;;;;;;;40.85;18.80;;;;;;;-0.01;100.00;96349.34;4999183;28;20429;-79
2023/11/29 09:43:18;;;;;;;39.58;19.15;;;;;;;0.04;100.00;96340.09;5000039;28;20493;-79
2023/11/29 09:45:45;;;;;;;39.72;19.00;;;;;;;0.02;100.00;96347.28;5000024;28;20448;-80
2023/11/29 09:48:12;;;;;;;42.67;18.60;;;;;;;0.00;100.00;96352.72;4999491;28;20777;-80
2023/11/29 09:50:40;;;;;;;39.70;17.60;;;;;;;-0.05;100.00;96358.53;5013420;28;20515;-79
2023/11/29 09:53:06;;;;;;;44.77;19.40;;;;;;;-0.14;100.00;96348.59;5019674;28;20407;-80
2023/11/29 09:55:33;;;;;;;38.33;16.90;;;;;;;-0.17;100.00;96352.41;5019710;28;20844;-80
2023/11/29 09:58:00;;;;;;;41.95;18.60;;;;;;;-0.22;100.00;96367.03;5019979;28;20396;-80
2023/11/29 10:00:28;;;;;;;35.85;16.90;;;;;;;-0.20;100.00;96359.81;5008690;28;20429;-80
2023/11/29 10:02:54;;;;;;;34.47;16.50;;;;;;;-0.18;100.00;96355.22;4999247;28;20453;-79
2023/11/29 10:05:20;;;;;;;36.28;16.70;;;;;;;-0.23;100.00;96358.47;4999520;28;20403;-80
2023/11/29 10:07:48;;;;;;;36.30;16.40;;;;;;;-0.23;100.00;96361.06;5000450;28;20494;-79
2023/11/29 10:10:15;;;;;;;38.78;16.02;;;;;;;-0.21;100.00;96355.63;4999642;28;20706;-79
2023/11/29 10:12:42;;;;;;;30.85;15.40;;;;;;;-0.17;100.00;96354.22;4999760;28;20398;-80
2023/11/29 10:15:09;;;;;;;29.65;13.88;;;;;;;-0.05;100.00;96355.16;5000551;28;20404;-80
2023/11/29 10:17:36;;;;;;;25.80;13.70;;;;;;;0.15;100.00;96352.44;5010412;28;20405;-79
2023/11/29 10:20:03;;;;;;;19.85;13.40;;;;;;;0.65;100.00;96351.44;5001842;28;20404;-81
2023/11/29 10:22:29;;;;;;;13.43;10.48;;;;;;;1.20;100.00;96348.91;5002520;28;20902;-80
2023/11/29 10:24:57;;;;;;;10.98;8.55;;;;;;;1.59;100.00;96346.81;5007957;28;20404;-80
2023/11/29 10:27:23;;;;;;;11.20;8.10;;;;;;;1.70;100.00;96349.50;5010479;28;20757;-80
2023/11/29 10:29:49;;;;;;;10.35;8.43;;;;;;;1.59;100.00;96347.63;5005543;28;20885;-77
2023/11/29 10:32:18;;;;;;;10.95;8.88;;;;;;;1.17;100.00;96337.09;5008501;28;20441;-78
2023/11/29 10:34:47;;;;;;;10.40;8.25;;;;;;;0.87;100.00;96340.59;5008273;28;20415;-79
2023/11/29 10:37:13;;;;;;;11.20;8.40;;;;;;;0.77;100.00;96343.69;5011347;28;20599;-80
2023/11/29 10:39:41;;;;;;;12.00;9.07;;;;;;;0.77;100.00;96333.28;5003118;28;20403;-80
2023/11/29 10:42:10;;;;;;;11.73;9.32;;;;;;;0.86;100.00;96333.81;5002744;28;20987;-80
2023/11/29 10:44:38;;;;;;;10.80;8.45;;;;;;;0.93;100.00;96327.50;5010799;28;20416;-81
2023/11/29 10:47:17;;;;;;;10.35;8.25;;;;;;;1.00;100.00;96327.44;5003858;28;20400;-81
2023/11/29 10:49:48;;;;;;;12.02;9.52;;;;;;;0.92;100.00;96325.91;5005389;28;20416;-79
2023/11/29 10:52:17;;;;;;;10.90;8.70;;;;;;;0.91;100.00;96320.91;4999671;28;20395;-81
2023/11/29 10:54:45;;;;;;;10.73;7.78;;;;;;;1.00;100.00;96320.44;4997666;28;20414;-78
2023/11/29 10:57:18;;;;;;;11.43;8.20;;;;;;;0.95;100.00;96316.88;5005006;28;20414;-80
2023/11/29 10:59:58;;;;;;;10.63;8.60;;;;;;;0.92;100.00;96307.69;4998968;28;20433;-80
2023/11/29 11:02:29;;;;;;;13.10;9.07;;;;;;;0.83;100.00;96303.00;5008131;28;20422;-79
2023/11/29 11:05:02;;;;;;;13.63;9.18;;;;;;;0.76;100.00;96305.63;4998797;28;20409;-80
2023/11/29 11:07:39;;;;;;;12.32;9.65;;;;;;;0.67;100.00;96306.94;5007450;28;20395;-81
2023/11/29 11:10:08;;;;;;;12.17;8.90;;;;;;;0.75;100.00;96301.47;5005373;28;20393;-79